Time;durP1;ratioP1;P1;durP2;ratioP2;P2;SDS_P1;SDS_P2;PMS_P1;PMS_P2;Temp;Humidity;BMP_temperature;BMP_pressure;BME280_temperature;BME280_humidity;BME280_pressure;Samples;Min_cycle;Max_cycle;Signal;HPM_P1;HPM_P2
2024/04/13 00:01:12;;;;;;;19.27;10.02;;;19.90;66.50;;;;;;5417818;26;20007;-79
2024/04/13 00:03:40;;;;;;;20.25;10.38;;;19.90;66.60;;;;;;5417407;26;20003;-79
2024/04/13 00:06:07;;;;;;;15.57;9.48;;;19.90;66.80;;;;;;5415537;26;20324;-78
2024/04/13 00:08:33;;;;;;;14.68;9.20;;;19.80;67.00;;;;;;5417602;26;19999;-79
2024/04/13 00:10:59;;;;;;;17.73;10.30;;;19.80;66.80;;;;;;5418170;26;20007;-77
2024/04/13 00:13:24;;;;;;;16.45;9.15;;;19.80;66.80;;;;;;5417792;26;20049;-78
2024/04/13 00:15:57;;;;;;;19.65;9.48;;;19.80;66.80;;;;;;5419359;26;20039;-77
2024/04/13 00:18:23;;;;;;;18.55;9.18;;;19.80;66.80;;;;;;5421381;26;19999;-78
2024/04/13 00:20:48;;;;;;;19.00;9.77;;;19.70;66.80;;;;;;5436114;26;20050;-78
2024/04/13 00:23:15;;;;;;;17.58;9.57;;;19.70;66.80;;;;;;5426344;26;20010;-78
2024/04/13 00:25:40;;;;;;;17.17;8.73;;;19.70;66.90;;;;;;5418911;26;20099;-78
2024/04/13 00:28:07;;;;;;;18.13;9.32;;;19.70;66.90;;;;;;5417922;26;19999;-78
2024/04/13 00:30:33;;;;;;;14.20;8.63;;;19.60;66.80;;;;;;5417098;26;20010;-78
2024/04/13 00:32:59;;;;;;;14.32;7.78;;;19.60;66.50;;;;;;5417382;26;19995;-78
2024/04/13 00:35:26;;;;;;;15.85;8.73;;;19.60;66.60;;;;;;5417556;26;20082;-79
2024/04/13 00:37:51;;;;;;;17.05;7.93;;;19.50;66.60;;;;;;5417306;26;20035;-77
2024/04/13 00:40:17;;;;;;;18.13;8.73;;;19.60;66.50;;;;;;5417483;26;20045;-79
2024/04/13 00:42:43;;;;;;;15.77;8.02;;;19.60;66.40;;;;;;5415695;26;20138;-78
2024/04/13 00:45:08;;;;;;;18.42;8.73;;;19.60;66.40;;;;;;5417379;26;20028;-78
2024/04/13 00:47:37;;;;;;;14.02;7.43;;;19.60;66.30;;;;;;5416720;26;20010;-77
2024/04/13 00:50:11;;;;;;;15.95;7.75;;;19.60;66.30;;;;;;5417136;26;20009;-78
2024/04/13 00:52:41;;;;;;;20.17;8.35;;;19.50;66.40;;;;;;5417385;26;20084;-77
2024/04/13 00:55:07;;;;;;;15.65;8.43;;;19.50;66.20;;;;;;5419138;26;20015;-79
2024/04/13 00:57:36;;;;;;;15.05;8.15;;;19.40;66.40;;;;;;5418027;26;20000;-78
2024/04/13 01:00:05;;;;;;;15.02;8.43;;;19.40;66.80;;;;;;5417773;26;19997;-79
2024/04/13 01:02:31;;;;;;;16.45;7.82;;;19.30;66.30;;;;;;5417272;26;20015;-78
2024/04/13 01:04:57;;;;;;;12.93;8.02;;;19.30;66.50;;;;;;5417312;26;20023;-79
2024/04/13 01:07:24;;;;;;;14.88;7.97;;;19.30;66.30;;;;;;5416517;26;20000;-78
2024/04/13 01:09:50;;;;;;;14.75;8.43;;;19.40;66.30;;;;;;5415246;26;19999;-77
2024/04/13 01:12:17;;;;;;;16.13;8.02;;;19.30;66.10;;;;;;5416663;26;20011;-78
2024/04/13 01:14:42;;;;;;;13.95;7.95;;;19.30;66.30;;;;;;5416310;26;19999;-78
2024/04/13 01:17:08;;;;;;;12.70;8.35;;;19.30;66.40;;;;;;5416693;26;20006;-77
2024/04/13 01:19:35;;;;;;;15.07;7.80;;;19.20;66.60;;;;;;5385582;26;20007;-78
2024/04/13 01:22:02;;;;;;;17.73;8.63;;;19.10;66.60;;;;;;5416031;26;20435;-78
2024/04/13 01:24:28;;;;;;;13.48;7.82;;;19.10;66.90;;;;;;5416329;26;20010;-78
2024/04/13 01:26:55;;;;;;;19.95;8.23;;;19.10;67.00;;;;;;5416247;26;20003;-78
2024/04/13 01:29:21;;;;;;;17.38;8.35;;;19.10;67.00;;;;;;5414045;26;20011;-78
2024/04/13 01:31:47;;;;;;;14.35;7.82;;;19.10;67.20;;;;;;5416350;26;19996;-78
2024/04/13 01:34:12;;;;;;;14.25;8.18;;;19.10;67.20;;;;;;5416513;26;20041;-79
2024/04/13 01:36:40;;;;;;;14.00;8.43;;;19.10;67.00;;;;;;5416145;26;19999;-79
2024/04/13 01:39:12;;;;;;;15.38;8.43;;;19.20;67.80;;;;;;5384959;26;20025;-78
2024/04/13 01:41:39;;;;;;;14.98;8.75;;;19.10;67.20;;;;;;5416299;26;20007;-78
2024/04/13 01:44:06;;;;;;;11.77;7.97;;;19.10;67.20;;;;;;5415990;26;20467;-79
2024/04/13 01:46:35;;;;;;;13.77;8.55;;;19.10;67.20;;;;;;5416042;26;19996;-77
2024/04/13 01:49:04;;;;;;;16.73;9.23;;;19.00;67.60;;;;;;5415895;26;20005;-77
2024/04/13 01:51:36;;;;;;;14.02;8.75;;;19.00;67.60;;;;;;5415865;26;20007;-77
2024/04/13 01:54:02;;;;;;;16.48;9.55;;;19.00;67.80;;;;;;5415818;26;20010;-78
2024/04/13 01:56:28;;;;;;;16.75;8.45;;;19.00;67.80;;;;;;5384298;26;20446;-78
2024/04/13 01:58:54;;;;;;;17.63;8.27;;;19.00;68.10;;;;;;5416473;26;20010;-79
2024/04/13 02:01:20;;;;;;;17.55;8.73;;;18.90;68.10;;;;;;5415980;26;20004;-78
2024/04/13 02:03:47;;;;;;;15.73;8.63;;;18.90;68.30;;;;;;5415580;26;20424;-76
2024/04/13 02:06:12;;;;;;;13.90;8.40;;;18.90;68.30;;;;;;5415488;26;19996;-78
2024/04/13 02:08:38;;;;;;;13.68;7.93;;;18.90;68.20;;;;;;5415617;26;20542;-78
2024/04/13 02:11:07;;;;;;;13.00;8.73;;;18.90;68.10;;;;;;5415297;26;19996;-79
2024/04/13 02:13:33;;;;;;;14.00;8.18;;;19.00;68.20;;;;;;5415366;26;19995;-77
2024/04/13 02:16:00;;;;;;;13.32;7.70;;;18.90;68.10;;;;;;5415481;26;20005;-78
2024/04/13 02:18:25;;;;;;;13.65;8.23;;;18.90;68.10;;;;;;5416127;26;19999;-78
2024/04/13 02:20:51;;;;;;;14.95;8.15;;;18.90;68.20;;;;;;5416066;26;19996;-78
2024/04/13 02:23:17;;;;;;;13.77;8.10;;;18.80;68.30;;;;;;5419224;26;20008;-78
2024/04/13 02:25:47;;;;;;;12.70;7.68;;;18.80;68.50;;;;;;5387583;26;19995;-78
2024/04/13 02:28:14;;;;;;;15.07;9.10;;;18.70;68.70;;;;;;5388217;26;19992;-79
2024/04/13 02:30:39;;;;;;;13.80;7.78;;;18.70;68.70;;;;;;5421692;26;20042;-78
2024/04/13 02:33:06;;;;;;;12.57;8.25;;;18.70;68.60;;;;;;5423588;26;20004;-77
2024/04/13 02:35:32;;;;;;;12.93;7.65;;;18.70;68.70;;;;;;5434609;26;20004;-78
2024/04/13 02:37:57;;;;;;;14.85;8.35;;;18.70;68.70;;;;;;5441088;26;19998;-78
2024/04/13 02:40:23;;;;;;;10.68;7.68;;;18.70;68.70;;;;;;5421583;26;19996;-76
2024/04/13 02:42:50;;;;;;;14.95;7.82;;;18.60;68.60;;;;;;5419703;26;20000;-78
2024/04/13 02:45:17;;;;;;;13.10;8.02;;;18.60;68.60;;;;;;5425654;26;19999;-77
2024/04/13 02:47:43;;;;;;;11.23;7.55;;;18.70;68.70;;;;;;5421892;26;20004;-78
2024/04/13 02:50:08;;;;;;;15.88;8.27;;;18.70;68.80;;;;;;5418658;26;20068;-78
2024/04/13 02:52:36;;;;;;;15.38;7.60;;;18.80;68.80;;;;;;5418416;26;20411;-73
2024/04/13 02:55:03;;;;;;;12.88;7.13;;;18.70;68.60;;;;;;5418735;26;20090;-78
2024/04/13 02:57:30;;;;;;;13.65;7.35;;;18.80;68.70;;;;;;5417816;26;20293;-77
2024/04/13 02:59:56;;;;;;;12.48;7.47;;;18.80;68.80;;;;;;5419003;26;20435;-77
2024/04/13 03:02:23;;;;;;;11.05;7.40;;;18.80;69.30;;;;;;5387852;26;19999;-77
2024/04/13 03:04:52;;;;;;;12.00;7.97;;;18.80;68.90;;;;;;5418618;26;19995;-77
2024/04/13 03:07:18;;;;;;;14.68;8.00;;;18.80;68.70;;;;;;5418320;26;19999;-78
2024/04/13 03:09:44;;;;;;;12.57;7.75;;;18.70;68.70;;;;;;5386955;26;20006;-78
2024/04/13 03:12:10;;;;;;;15.45;8.45;;;18.70;68.80;;;;;;5418718;26;19996;-78
2024/04/13 03:14:36;;;;;;;16.73;8.40;;;18.60;68.80;;;;;;5418623;26;19999;-78
2024/04/13 03:17:02;;;;;;;14.20;7.95;;;18.60;68.90;;;;;;5418604;26;20464;-77
2024/04/13 03:19:29;;;;;;;16.08;7.85;;;18.60;69.00;;;;;;5418284;26;20328;-78
2024/04/13 03:21:54;;;;;;;13.32;7.88;;;18.50;69.10;;;;;;5417989;26;19996;-77
2024/04/13 03:24:20;;;;;;;12.82;7.38;;;18.50;69.30;;;;;;5416491;26;20075;-78
2024/04/13 03:26:46;;;;;;;11.63;7.30;;;18.50;69.30;;;;;;5418362;26;20424;-77
2024/04/13 03:29:12;;;;;;;12.82;7.32;;;18.50;69.50;;;;;;5416492;26;20007;-77
2024/04/13 03:31:38;;;;;;;13.77;7.53;;;18.50;69.80;;;;;;5418685;26;20006;-79
2024/04/13 03:34:04;;;;;;;12.90;7.20;;;18.50;69.80;;;;;;5385489;26;20027;-78
2024/04/13 03:36:31;;;;;;;11.82;7.65;;;18.40;69.80;;;;;;5418077;26;20007;-78
2024/04/13 03:38:56;;;;;;;13.05;7.63;;;18.40;70.00;;;;;;5418244;26;19999;-78
2024/04/13 03:41:22;;;;;;;11.02;8.10;;;18.40;70.10;;;;;;5418339;26;20000;-77
2024/04/13 03:43:48;;;;;;;16.15;8.00;;;18.40;70.20;;;;;;5418175;26;20003;-77
2024/04/13 03:46:14;;;;;;;15.48;7.70;;;18.40;70.10;;;;;;5419400;26;20051;-77
2024/04/13 03:48:41;;;;;;;15.23;8.30;;;18.40;70.10;;;;;;5389609;26;20126;-77
2024/04/13 03:51:11;;;;;;;13.35;7.45;;;18.40;70.30;;;;;;5419373;26;20000;-78
2024/04/13 03:53:37;;;;;;;16.77;7.88;;;18.30;70.30;;;;;;5418000;26;20346;-78
2024/04/13 03:56:03;;;;;;;15.75;8.13;;;18.30;70.50;;;;;;5417698;26;19995;-78
2024/04/13 03:58:30;;;;;;;13.07;7.40;;;18.30;70.70;;;;;;5417919;26;20000;-78
2024/04/13 04:00:56;;;;;;;14.38;7.65;;;18.30;70.70;;;;;;5417545;26;20072;-78
2024/04/13 04:03:23;;;;;;;13.43;7.78;;;18.30;70.80;;;;;;5386152;26;20448;-78
2024/04/13 04:05:54;;;;;;;12.70;7.47;;;18.20;70.50;;;;;;5417676;26;20006;-78
2024/04/13 04:08:19;;;;;;;14.07;7.25;;;18.20;70.70;;;;;;5417878;26;20027;-78
2024/04/13 04:10:45;;;;;;;15.07;7.55;;;18.20;70.80;;;;;;5417720;26;20000;-78
2024/04/13 04:13:11;;;;;;;11.90;7.28;;;18.20;70.70;;;;;;5417614;26;20028;-78
2024/04/13 04:15:37;;;;;;;14.13;7.70;;;18.20;70.80;;;;;;5417815;26;19996;-77
2024/04/13 04:18:03;;;;;;;13.60;8.02;;;18.20;70.90;;;;;;5385815;26;20400;-76
2024/04/13 04:20:34;;;;;;;12.60;7.38;;;18.20;70.90;;;;;;5417798;26;20115;-77
2024/04/13 04:23:01;;;;;;;12.68;7.75;;;18.10;70.80;;;;;;5417817;26;19999;-79
2024/04/13 04:25:26;;;;;;;13.18;7.82;;;18.10;71.20;;;;;;5386094;26;19992;-77
2024/04/13 04:27:52;;;;;;;13.60;7.18;;;18.10;71.10;;;;;;5417499;26;20461;-78
2024/04/13 04:30:18;;;;;;;12.02;8.35;;;18.10;71.30;;;;;;5417507;26;20288;-78
2024/04/13 04:32:44;;;;;;;13.65;8.07;;;18.10;71.40;;;;;;5417367;26;20520;-78
2024/04/13 04:35:10;;;;;;;16.83;7.85;;;18.00;71.40;;;;;;5417386;26;19995;-77
2024/04/13 04:37:36;;;;;;;11.80;7.40;;;18.00;71.70;;;;;;5417108;26;20023;-77
2024/04/13 04:40:03;;;;;;;12.98;7.75;;;18.00;71.70;;;;;;5417547;26;20068;-77
2024/04/13 04:42:28;;;;;;;10.27;7.70;;;18.00;72.10;;;;;;5417778;26;19995;-77
2024/04/13 04:44:55;;;;;;;12.60;7.50;;;17.90;72.60;;;;;;5417187;26;20006;-78
2024/04/13 04:47:21;;;;;;;13.25;7.60;;;17.90;72.10;;;;;;5386170;26;20003;-78
2024/04/13 04:49:48;;;;;;;11.55;7.35;;;17.90;72.30;;;;;;5422846;26;20007;-77
2024/04/13 04:52:14;;;;;;;10.63;7.35;;;17.90;72.20;;;;;;5427005;26;19992;-78
2024/04/13 04:54:41;;;;;;;12.73;7.72;;;17.90;72.40;;;;;;5440231;26;19988;-78
2024/04/13 04:57:07;;;;;;;10.82;6.50;;;18.00;72.50;;;;;;5427997;26;20010;-76
2024/04/13 04:59:32;;;;;;;12.20;7.68;;;18.00;72.70;;;;;;5418206;26;20011;-77
2024/04/13 05:01:58;;;;;;;10.80;6.90;;;18.00;72.70;;;;;;5417250;26;20023;-78
2024/04/13 05:04:24;;;;;;;11.90;6.95;;;17.90;72.70;;;;;;5417598;26;19999;-78
2024/04/13 05:06:49;;;;;;;12.48;7.13;;;18.00;72.70;;;;;;5417165;26;20004;-78
2024/04/13 05:09:16;;;;;;;10.13;6.93;;;18.00;72.50;;;;;;5416551;26;19999;-78
2024/04/13 05:11:41;;;;;;;14.68;6.65;;;18.10;72.40;;;;;;5385388;26;20011;-79
2024/04/13 05:14:09;;;;;;;14.55;6.88;;;18.10;72.50;;;;;;5416359;26;20347;-77
2024/04/13 05:16:34;;;;;;;12.98;7.43;;;18.10;72.40;;;;;;5416145;26;20073;-77
2024/04/13 05:19:03;;;;;;;12.60;7.82;;;18.20;72.60;;;;;;5416592;26;20463;-77
2024/04/13 05:21:31;;;;;;;9.93;6.75;;;18.20;72.60;;;;;;5416199;26;20007;-79
2024/04/13 05:23:58;;;;;;;11.85;7.13;;;18.20;73.20;;;;;;5416463;26;20015;-78
2024/04/13 05:26:24;;;;;;;10.63;7.10;;;18.30;72.50;;;;;;5416409;26;20002;-79
2024/04/13 05:28:50;;;;;;;14.10;7.60;;;18.20;72.30;;;;;;5416439;26;20032;-76
2024/04/13 05:31:16;;;;;;;9.50;7.07;;;18.30;72.90;;;;;;5415856;26;20064;-77
2024/04/13 05:33:44;;;;;;;11.10;7.28;;;18.30;72.10;;;;;;5416395;26;20458;-78
2024/04/13 05:36:10;;;;;;;8.32;6.53;;;18.40;72.10;;;;;;5417717;26;20068;-77
2024/04/13 05:38:36;;;;;;;11.52;6.85;;;18.50;72.10;;;;;;5417512;26;20008;-79
2024/04/13 05:41:02;;;;;;;11.15;6.75;;;18.50;72.00;;;;;;5415923;26;20010;-78
2024/04/13 05:43:29;;;;;;;13.73;7.05;;;18.60;71.90;;;;;;5416242;26;20107;-77
2024/04/13 05:45:55;;;;;;;13.55;7.10;;;18.70;71.80;;;;;;5416034;26;19995;-79
2024/04/13 05:48:21;;;;;;;12.65;6.60;;;19.10;71.40;;;;;;5416254;26;20458;-78
2024/04/13 05:50:54;;;;;;;15.02;6.65;;;19.30;70.60;;;;;;5416552;26;19996;-77
2024/04/13 05:53:19;;;;;;;11.98;6.18;;;20.30;69.70;;;;;;5416077;26;20003;-79
2024/04/13 05:55:45;;;;;;;12.07;6.28;;;21.50;67.50;;;;;;5414536;26;20336;-78
2024/04/13 05:58:11;;;;;;;13.18;6.40;;;22.30;65.00;;;;;;5419279;26;20442;-78
2024/04/13 06:00:37;;;;;;;10.25;6.20;;;22.90;63.20;;;;;;5420029;26;20031;-79
2024/04/13 06:03:02;;;;;;;11.02;6.18;;;23.40;62.20;;;;;;5420245;26;20020;-78
2024/04/13 06:05:28;;;;;;;12.40;6.40;;;23.80;61.40;;;;;;5419407;26;20064;-78
2024/04/13 06:07:54;;;;;;;9.48;5.78;;;24.00;60.70;;;;;;5419374;26;19999;-77
2024/04/13 06:10:20;;;;;;;9.57;6.38;;;24.40;60.40;;;;;;5418843;26;20011;-76
2024/04/13 06:12:46;;;;;;;12.48;6.13;;;24.80;59.60;;;;;;5419127;26;20324;-78
2024/04/13 06:15:12;;;;;;;13.23;6.22;;;25.20;58.90;;;;;;5417026;26;20401;-78
2024/04/13 06:17:38;;;;;;;9.75;6.20;;;25.70;58.40;;;;;;5419493;26;20067;-78
2024/04/13 06:20:04;;;;;;;14.85;7.10;;;26.00;57.50;;;;;;5419704;26;20066;-76
2024/04/13 06:22:29;;;;;;;13.98;6.68;;;26.20;56.80;;;;;;5419407;26;19996;-78
2024/04/13 06:24:55;;;;;;;10.73;6.50;;;26.90;56.40;;;;;;5419793;26;20007;-79
2024/04/13 06:27:21;;;;;;;10.32;6.60;;;27.40;55.70;;;;;;5419091;26;19995;-78
2024/04/13 06:29:48;;;;;;;15.27;7.05;;;28.10;54.70;;;;;;5420397;26;20014;-79
2024/04/13 06:32:14;;;;;;;12.27;6.22;;;28.40;54.10;;;;;;5419753;26;19999;-78
2024/04/13 06:34:40;;;;;;;15.75;7.05;;;28.80;53.60;;;;;;5419298;26;20364;-77
2024/04/13 06:37:06;;;;;;;17.25;9.73;;;29.10;52.80;;;;;;5419188;26;20010;-79
2024/04/13 06:39:32;;;;;;;14.35;7.07;;;29.30;52.30;;;;;;5419121;26;20385;-78
2024/04/13 06:41:58;;;;;;;13.23;7.53;;;29.50;51.70;;;;;;5419079;26;19999;-78
2024/04/13 06:44:23;;;;;;;14.07;7.55;;;29.60;51.20;;;;;;5418835;26;20122;-78
2024/04/13 06:46:52;;;;;;;11.85;7.18;;;29.50;50.80;;;;;;5418621;26;20015;-78
2024/04/13 06:49:20;;;;;;;11.93;6.63;;;29.40;51.00;;;;;;5418851;26;19991;-78
2024/04/13 06:51:45;;;;;;;12.68;7.05;;;29.30;50.70;;;;;;5418954;26;19995;-78
2024/04/13 06:54:11;;;;;;;12.10;6.88;;;29.50;50.40;;;;;;5417808;26;20006;-78
2024/04/13 06:56:37;;;;;;;10.50;6.47;;;29.40;50.30;;;;;;5419103;26;19999;-79
2024/04/13 06:59:03;;;;;;;15.48;6.55;;;29.40;50.00;;;;;;5419085;26;20151;-78
2024/04/13 07:01:29;;;;;;;17.33;7.18;;;29.60;49.70;;;;;;5419115;26;20076;-78
2024/04/13 07:03:56;;;;;;;12.10;6.72;;;29.60;49.40;;;;;;5387262;26;20020;-78
2024/04/13 07:06:26;;;;;;;12.43;6.50;;;29.80;49.20;;;;;;5426792;26;19995;-78
2024/04/13 07:08:52;;;;;;;11.02;6.47;;;30.10;48.00;;;;;;5432004;26;20009;-74
2024/04/13 07:11:18;;;;;;;16.63;7.50;;;30.30;48.40;;;;;;5437505;26;20011;-76
2024/04/13 07:13:43;;;;;;;13.43;8.13;;;30.50;47.70;;;;;;5422982;26;20006;-78
2024/04/13 07:16:09;;;;;;;13.93;8.48;;;30.50;47.60;;;;;;5420408;26;20053;-79
2024/04/13 07:18:35;;;;;;;12.65;7.40;;;30.20;47.60;;;;;;5418962;26;19995;-79
2024/04/13 07:21:01;;;;;;;12.02;7.30;;;30.00;47.80;;;;;;5418013;26;19996;-78
2024/04/13 07:23:27;;;;;;;13.32;7.25;;;30.10;48.00;;;;;;5418575;26;20011;-80
2024/04/13 07:26:00;;;;;;;14.75;7.38;;;30.40;47.50;;;;;;5419021;26;19995;-78
2024/04/13 07:28:27;;;;;;;19.42;13.27;;;30.30;46.70;;;;;;5418502;26;20056;-77
2024/04/13 07:30:52;;;;;;;12.88;6.60;;;29.50;48.00;;;;;;5418003;26;20006;-78
2024/04/13 07:33:18;;;;;;;12.32;6.47;;;28.30;49.60;;;;;;5418358;26;20435;-78
2024/04/13 07:35:44;;;;;;;11.07;5.95;;;27.40;51.20;;;;;;5418212;26;20349;-78
2024/04/13 07:38:10;;;;;;;11.68;6.75;;;26.80;52.40;;;;;;5418139;26;20006;-77
2024/04/13 07:40:35;;;;;;;10.13;6.10;;;26.10;53.50;;;;;;5417769;26;20065;-79
2024/04/13 07:43:01;;;;;;;9.07;5.85;;;25.60;54.30;;;;;;5417901;26;20010;-79
2024/04/13 07:45:27;;;;;;;11.32;6.32;;;25.30;55.00;;;;;;5418104;26;20125;-80
2024/04/13 07:47:52;;;;;;;12.40;6.20;;;25.20;55.80;;;;;;5417959;26;20006;-79
2024/04/13 07:50:18;;;;;;;12.23;5.90;;;25.10;55.90;;;;;;5417612;26;20007;-79
2024/04/13 07:52:44;;;;;;;15.95;9.85;;;25.10;56.00;;;;;;5417580;26;20026;-79
2024/04/13 07:55:10;;;;;;;10.43;7.03;;;25.00;56.10;;;;;;5417609;26;20045;-79
2024/04/13 07:57:35;;;;;;;17.80;6.70;;;25.00;56.30;;;;;;5416230;26;20439;-78
2024/04/13 08:00:01;;;;;;;15.05;6.28;;;24.80;56.50;;;;;;5417786;26;20350;-79
2024/04/13 08:02:27;;;;;;;17.25;6.20;;;24.80;56.80;;;;;;5417655;26;20435;-77
2024/04/13 08:04:53;;;;;;;9.60;5.75;;;24.70;56.80;;;;;;5386228;26;19992;-79
2024/04/13 08:07:18;;;;;;;12.57;5.82;;;24.70;57.10;;;;;;5415961;26;20031;-78
2024/04/13 08:09:44;;;;;;;17.67;6.82;;;24.70;57.10;;;;;;5417564;26;19996;-79
2024/04/13 08:12:10;;;;;;;8.57;6.07;;;24.60;57.20;;;;;;5418848;26;20299;-79
2024/04/13 08:14:36;;;;;;;9.25;6.63;;;24.50;57.30;;;;;;5418887;26;20007;-78
2024/04/13 08:17:03;;;;;;;10.88;7.22;;;24.50;57.50;;;;;;5418190;26;19999;-78
2024/04/13 08:19:29;;;;;;;12.20;7.25;;;24.40;57.30;;;;;;5417273;26;20042;-80
2024/04/13 08:21:54;;;;;;;20.60;15.27;;;24.30;57.50;;;;;;5417600;26;19999;-80
2024/04/13 08:24:20;;;;;;;13.55;10.38;;;24.20;57.80;;;;;;5417952;26;19999;-79
2024/04/13 08:26:46;;;;;;;14.63;9.23;;;24.10;57.80;;;;;;5418033;26;20006;-80
2024/04/13 08:29:11;;;;;;;12.48;6.90;;;24.10;57.80;;;;;;5417614;26;20000;-80
2024/04/13 08:31:38;;;;;;;15.15;6.43;;;24.10;57.80;;;;;;5417375;26;20011;-79
2024/04/13 08:34:05;;;;;;;12.90;6.97;;;24.10;57.80;;;;;;5417509;26;19995;-80
2024/04/13 08:36:31;;;;;;;14.60;7.22;;;24.10;57.80;;;;;;5418067;26;19995;-79
2024/04/13 08:38:57;;;;;;;12.85;6.60;;;24.10;57.90;;;;;;5417278;26;19999;-78
2024/04/13 08:41:38;;;;;;;14.05;7.07;;;24.00;57.80;;;;;;5417364;26;20083;-78
2024/04/13 08:44:04;;;;;;;11.80;6.63;;;24.00;57.70;;;;;;5387028;26;20006;-79
2024/04/13 08:46:35;;;;;;;9.65;6.60;;;24.00;57.90;;;;;;5417736;26;20476;-79
2024/04/13 08:49:02;;;;;;;12.00;6.95;;;24.10;58.10;;;;;;5417019;26;20439;-79
2024/04/13 08:51:30;;;;;;;8.35;5.72;;;24.10;58.20;;;;;;5417129;26;20000;-78
2024/04/13 08:53:57;;;;;;;12.00;6.20;;;24.10;57.90;;;;;;5417096;26;20466;-79
2024/04/13 08:56:25;;;;;;;15.85;6.15;;;24.10;57.90;;;;;;5417299;26;20097;-78
2024/04/13 08:58:52;;;;;;;9.60;6.22;;;24.10;57.80;;;;;;5417878;26;20114;-79
2024/04/13 09:01:25;;;;;;;12.43;6.90;;;24.10;58.20;;;;;;5417247;26;20000;-78
2024/04/13 09:03:50;;;;;;;13.98;6.65;;;24.10;58.10;;;;;;5417270;26;19995;-78
2024/04/13 09:06:18;;;;;;;10.73;6.50;;;24.10;57.90;;;;;;5416629;26;20328;-79
2024/04/13 09:08:46;;;;;;;11.73;7.13;;;24.10;58.10;;;;;;5416963;26;20036;-79
2024/04/13 09:11:13;;;;;;;12.45;6.63;;;24.20;58.10;;;;;;5416563;26;20352;-78
2024/04/13 09:13:38;;;;;;;12.88;6.40;;;24.20;57.90;;;;;;5417318;26;20010;-79
2024/04/13 09:16:06;;;;;;;15.70;7.75;;;24.20;57.90;;;;;;5416008;26;20007;-78
2024/04/13 09:18:33;;;;;;;9.63;6.30;;;24.30;57.60;;;;;;5416427;26;20501;-78
2024/04/13 09:21:01;;;;;;;12.68;6.82;;;24.40;58.00;;;;;;5416000;26;19995;-79
2024/04/13 09:23:31;;;;;;;12.23;7.90;;;24.40;58.00;;;;;;5416212;26;20010;-79
2024/04/13 09:26:07;;;;;;;16.65;10.18;;;24.40;57.80;;;;;;5416984;26;20007;-77
2024/04/13 09:28:44;;;;;;;14.88;7.22;;;24.50;57.90;;;;;;5416266;26;20462;-76
2024/04/13 09:31:13;;;;;;;11.85;5.80;;;24.50;57.50;;;;;;5383718;26;20430;-78
2024/04/13 09:33:40;;;;;;;20.40;7.40;;;24.50;58.00;;;;;;5416128;26;20004;-80
2024/04/13 09:36:06;;;;;;;16.55;6.60;;;24.60;58.00;;;;;;5416352;26;20006;-79
2024/04/13 09:38:32;;;;;;;10.73;5.70;;;24.70;58.10;;;;;;5415932;26;20007;-78
2024/04/13 09:40:58;;;;;;;14.75;7.72;;;24.70;58.00;;;;;;5415798;26;19996;-78
2024/04/13 09:43:24;;;;;;;13.55;6.65;;;24.70;57.90;;;;;;5415635;26;20058;-77
2024/04/13 09:46:01;;;;;;;14.18;7.03;;;24.80;58.00;;;;;;5415516;26;20473;-78
2024/04/13 09:48:28;;;;;;;14.48;6.88;;;24.80;57.70;;;;;;5415812;26;19995;-79
2024/04/13 09:50:54;;;;;;;13.98;7.00;;;24.90;58.00;;;;;;5415532;26;20007;-79
2024/04/13 09:53:19;;;;;;;12.18;6.20;;;25.00;57.60;;;;;;5415217;26;20015;-79
2024/04/13 09:55:46;;;;;;;11.77;5.95;;;25.00;57.30;;;;;;5415094;26;20453;-77
2024/04/13 09:58:15;;;;;;;11.65;6.10;;;25.10;57.40;;;;;;5415188;26;20038;-76
2024/04/13 10:00:49;;;;;;;9.35;6.15;;;25.10;57.30;;;;;;5415699;26;20010;-79
2024/04/13 10:03:16;;;;;;;16.40;6.57;;;25.10;57.50;;;;;;5415354;26;19996;-79
2024/04/13 10:05:46;;;;;;;51.38;11.52;;;25.10;57.60;;;;;;5383886;26;20010;-79
2024/04/13 10:08:13;;;;;;;36.03;8.70;;;25.20;57.30;;;;;;5383586;26;20450;-78
2024/04/13 10:10:48;;;;;;;11.30;5.70;;;25.30;57.20;;;;;;5415077;26;19996;-78
2024/04/13 10:13:29;;;;;;;11.23;5.75;;;25.30;56.90;;;;;;5415288;26;20010;-80
2024/04/13 10:15:58;;;;;;;9.55;5.90;;;25.30;56.40;;;;;;5416091;26;19995;-77
2024/04/13 10:18:24;;;;;;;15.55;6.40;;;25.30;56.70;;;;;;5415082;26;20369;-77
2024/04/13 10:20:50;;;;;;;11.15;5.75;;;25.40;56.50;;;;;;5414945;26;19996;-79
2024/04/13 10:23:16;;;;;;;12.43;6.10;;;25.50;56.60;;;;;;5414836;26;20064;-79
2024/04/13 10:25:42;;;;;;;16.10;6.72;;;25.50;56.50;;;;;;5414920;26;20508;-79
2024/04/13 10:28:20;;;;;;;10.02;5.90;;;25.60;56.50;;;;;;5414834;26;20126;-78
2024/04/13 10:30:56;;;;;;;11.98;5.25;;;25.70;56.40;;;;;;5414349;26;20007;-77
2024/04/13 10:33:23;;;;;;;9.55;5.60;;;25.70;55.80;;;;;;5414548;26;20068;-77
2024/04/13 10:36:03;;;;;;;10.13;6.45;;;25.90;55.80;;;;;;5414735;26;19999;-79
2024/04/13 10:38:31;;;;;;;11.32;5.57;;;26.00;55.70;;;;;;5414495;26;20451;-78
2024/04/13 10:40:57;;;;;;;11.77;5.65;;;26.10;54.90;;;;;;5414661;26;20000;-77
2024/04/13 10:43:24;;;;;;;11.48;5.43;;;26.20;54.30;;;;;;5416646;26;20446;-79
2024/04/13 10:46:00;;;;;;;9.18;5.20;;;26.30;54.40;;;;;;5418198;26;19998;-79
2024/04/13 10:48:28;;;;;;;8.85;5.45;;;26.30;53.30;;;;;;5418190;26;20316;-78
2024/04/13 10:50:55;;;;;;;14.02;6.43;;;26.40;54.00;;;;;;5417993;26;20383;-79
2024/04/13 10:53:28;;;;;;;12.35;5.78;;;26.50;53.50;;;;;;5418174;26;20006;-78
2024/04/13 10:55:56;;;;;;;9.75;5.38;;;26.60;53.60;;;;;;5418395;26;20487;-79
2024/04/13 10:58:31;;;;;;;9.30;5.95;;;26.60;53.60;;;;;;5418077;26;20002;-79
2024/04/13 11:00:58;;;;;;;9.25;5.55;;;26.60;53.40;;;;;;5418163;26;20414;-78
2024/04/13 11:03:24;;;;;;;11.40;5.65;;;26.80;52.90;;;;;;5419012;26;20014;-78
2024/04/13 11:05:50;;;;;;;10.88;5.65;;;26.80;53.00;;;;;;5418454;26;20327;-77
2024/04/13 11:08:16;;;;;;;16.30;5.47;;;26.90;52.60;;;;;;5420717;26;20010;-76
2024/04/13 11:10:42;;;;;;;9.32;5.18;;;26.90;52.40;;;;;;5423927;26;20034;-77
2024/04/13 11:13:09;;;;;;;12.13;6.22;;;26.90;52.40;;;;;;5418789;26;20011;-79
2024/04/13 11:15:34;;;;;;;10.55;5.55;;;27.00;52.40;;;;;;5419424;26;20084;-77
2024/04/13 11:18:01;;;;;;;7.10;4.90;;;27.10;51.90;;;;;;5388757;26;20439;-78
2024/04/13 11:20:29;;;;;;;10.90;5.43;;;27.20;51.60;;;;;;5418096;26;19995;-78
2024/04/13 11:22:56;;;;;;;8.10;4.80;;;27.20;51.50;;;;;;5417870;26;20284;-77
2024/04/13 11:25:23;;;;;;;11.23;5.35;;;27.20;51.50;;;;;;5417927;26;20343;-78
2024/04/13 11:27:49;;;;;;;10.30;5.47;;;27.30;51.20;;;;;;5419310;26;20010;-78
2024/04/13 11:30:16;;;;;;;11.43;5.30;;;27.30;51.00;;;;;;5419746;26;20026;-78
2024/04/13 11:32:42;;;;;;;11.20;5.55;;;27.50;51.10;;;;;;5418916;26;19995;-77
2024/04/13 11:35:16;;;;;;;11.57;5.68;;;27.50;50.90;;;;;;5418103;26;19995;-79
2024/04/13 11:37:42;;;;;;;;;;;27.60;50.90;;;;;;5418374;26;20000;-78
2024/04/13 11:40:08;;;;;;;11.68;5.63;;;27.70;50.70;;;;;;5417678;26;19925;-78
2024/04/13 11:42:38;;;;;;;9.25;5.43;;;27.80;50.60;;;;;;5417884;26;20011;-77
2024/04/13 11:45:04;;;;;;;13.25;5.50;;;27.90;50.30;;;;;;5386280;26;19988;-80
2024/04/13 11:47:30;;;;;;;9.68;5.65;;;28.00;49.80;;;;;;5417669;26;19995;-77
2024/04/13 11:49:56;;;;;;;13.05;5.95;;;28.10;50.70;;;;;;5417707;26;20350;-78
2024/04/13 11:52:22;;;;;;;13.80;5.90;;;28.10;49.90;;;;;;5417916;26;20011;-79
2024/04/13 11:54:48;;;;;;;12.65;5.72;;;28.20;49.80;;;;;;5417037;26;19992;-79
2024/04/13 11:57:13;;;;;;;10.48;5.30;;;28.30;49.90;;;;;;5418145;26;19991;-79
2024/04/13 11:59:40;;;;;;;9.10;5.38;;;28.40;50.00;;;;;;5417826;26;20029;-78
2024/04/13 12:02:05;;;;;;;10.95;5.38;;;28.50;50.20;;;;;;5417384;26;20041;-78
2024/04/13 12:04:31;;;;;;;9.95;5.60;;;28.50;50.40;;;;;;5386180;26;19992;-79
2024/04/13 12:06:57;;;;;;;11.15;5.60;;;28.50;50.80;;;;;;5417452;26;19991;-79
2024/04/13 12:09:24;;;;;;;9.77;5.50;;;28.60;50.70;;;;;;5417869;26;20029;-78
2024/04/13 12:11:50;;;;;;;9.55;5.20;;;28.60;50.40;;;;;;5417802;26;20074;-80
2024/04/13 12:14:15;;;;;;;10.98;5.70;;;28.60;50.70;;;;;;5419134;26;20003;-78
2024/04/13 12:16:44;;;;;;;13.45;5.57;;;28.60;50.70;;;;;;5418143;26;19998;-79
2024/04/13 12:19:10;;;;;;;10.70;5.68;;;28.70;50.80;;;;;;5387624;26;20399;-78
2024/04/13 12:21:36;;;;;;;12.63;5.30;;;28.70;50.70;;;;;;5415820;26;20002;-79
2024/04/13 12:24:03;;;;;;;10.00;5.18;;;28.70;50.70;;;;;;5417636;26;20019;-78
2024/04/13 12:26:30;;;;;;;14.57;5.22;;;28.70;50.40;;;;;;5417475;26;20003;-78
2024/04/13 12:28:55;;;;;;;8.25;5.28;;;28.70;50.50;;;;;;5417657;26;20031;-79
2024/04/13 12:31:21;;;;;;;8.38;5.22;;;28.70;50.60;;;;;;5417435;26;19991;-79
2024/04/13 12:33:47;;;;;;;12.35;5.30;;;28.70;50.40;;;;;;5417564;26;20437;-78
2024/04/13 12:36:13;;;;;;;10.10;5.10;;;28.60;50.00;;;;;;5417668;26;20284;-80